sensor_id;sensor_type;location;lat;lon;timestamp;pressure;altitude;pressure_sealevel;temperature;humidity
25130;BME280;13308;50.860;13.664;2024-01-06T07:16:51;95797.94;;;1.85;100.00
25130;BME280;13308;50.860;13.664;2024-01-06T07:19:17;95808.81;;;1.88;100.00
25130;BME280;13308;50.860;13.664;2024-01-06T07:21:42;95811.13;;;1.90;100.00
25130;BME280;13308;50.860;13.664;2024-01-06T07:24:07;95820.44;;;1.96;100.00
25130;BME280;13308;50.860;13.664;2024-01-06T07:26:32;95816.59;;;2.11;100.00
25130;BME280;13308;50.860;13.664;2024-01-06T07:28:58;95820.88;;;2.05;100.00
25130;BME280;13308;50.860;13.664;2024-01-06T07:31:23;95832.13;;;2.07;100.00
25130;BME280;13308;50.860;13.664;2024-01-06T07:33:48;95829.78;;;2.02;100.00
25130;BME280;13308;50.860;13.664;2024-01-06T07:36:14;95827.47;;;2.11;100.00
25130;BME280;13308;50.860;13.664;2024-01-06T07:38:39;95826.69;;;2.07;100.00
25130;BME280;13308;50.860;13.664;2024-01-06T07:41:04;95825.13;;;2.13;100.00
25130;BME280;13308;50.860;13.664;2024-01-06T07:43:30;95830.56;;;2.13;100.00
25130;BME280;13308;50.860;13.664;2024-01-06T07:45:55;95832.91;;;2.18;100.00
25130;BME280;13308;50.860;13.664;2024-01-06T07:48:21;95839.13;;;2.18;100.00
25130;BME280;13308;50.860;13.664;2024-01-06T07:50:46;95848.47;;;2.21;100.00
25130;BME280;13308;50.860;13.664;2024-01-06T07:53:11;95839.91;;;2.22;100.00
25130;BME280;13308;50.860;13.664;2024-01-06T07:55:39;95848.47;;;2.21;100.00
25130;BME280;13308;50.860;13.664;2024-01-06T07:58:04;95843.03;;;2.21;100.00
25130;BME280;13308;50.860;13.664;2024-01-06T08:00:29;95850.78;;;2.15;100.00
25130;BME280;13308;50.860;13.664;2024-01-06T08:02:54;95852.31;;;2.16;100.00
25130;BME280;13308;50.860;13.664;2024-01-06T08:05:20;95846.88;;;2.20;100.00
25130;BME280;13308;50.860;13.664;2024-01-06T08:07:46;95857.00;;;2.30;100.00
25130;BME280;13308;50.860;13.664;2024-01-06T08:10:11;95859.34;;;2.35;100.00
25130;BME280;13308;50.860;13.664;2024-01-06T08:12:36;95866.31;;;2.36;100.00
25130;BME280;13308;50.860;13.664;2024-01-06T08:15:02;95865.94;;;2.48;100.00
25130;BME280;13308;50.860;13.664;2024-01-06T08:17:29;95865.16;;;2.51;100.00
25130;BME280;13308;50.860;13.664;2024-01-06T08:19:55;95875.66;;;2.49;100.00
25130;BME280;13308;50.860;13.664;2024-01-06T08:22:20;95864.38;;;2.54;100.00
25130;BME280;13308;50.860;13.664;2024-01-06T08:24:45;95865.16;;;2.58;100.00
25130;BME280;13308;50.860;13.664;2024-01-06T08:27:10;95865.53;;;2.63;100.00
25130;BME280;13308;50.860;13.664;2024-01-06T08:29:36;95877.22;;;2.60;100.00
25130;BME280;13308;50.860;13.664;2024-01-06T08:32:01;95878.00;;;2.68;100.00
25130;BME280;13308;50.860;13.664;2024-01-06T08:34:26;95880.69;;;2.75;100.00
25130;BME280;13308;50.860;13.664;2024-01-06T08:36:52;95881.44;;;2.79;100.00
25130;BME280;13308;50.860;13.664;2024-01-06T08:39:17;95881.06;;;2.84;100.00
25130;BME280;13308;50.860;13.664;2024-01-06T08:41:43;95886.09;;;2.96;100.00
25130;BME280;13308;50.860;13.664;2024-01-06T08:44:08;95889.59;;;3.00;100.00
25130;BME280;13308;50.860;13.664;2024-01-06T08:46:33;95881.81;;;2.98;100.00
25130;BME280;13308;50.860;13.664;2024-01-06T08:48:59;95884.53;;;2.95;100.00
25130;BME280;13308;50.860;13.664;2024-01-06T08:51:25;95886.09;;;2.99;100.00
25130;BME280;13308;50.860;13.664;2024-01-06T08:53:51;95889.97;;;3.02;100.00
25130;BME280;13308;50.860;13.664;2024-01-06T08:56:17;95898.94;;;3.06;100.00
25130;BME280;13308;50.860;13.664;2024-01-06T08:58:43;95902.78;;;3.19;100.00
25130;BME280;13308;50.860;13.664;2024-01-06T09:01:09;95909.81;;;3.09;100.00
25130;BME280;13308;50.860;13.664;2024-01-06T09:03:34;95909.03;;;3.16;100.00
25130;BME280;13308;50.860;13.664;2024-01-06T09:05:59;95904.34;;;3.20;100.00
25130;BME280;13308;50.860;13.664;2024-01-06T09:08:25;95907.47;;;3.22;100.00
25130;BME280;13308;50.860;13.664;2024-01-06T09:10:50;95905.09;;;3.31;100.00
25130;BME280;13308;50.860;13.664;2024-01-06T09:13:22;95912.06;;;3.46;100.00
25130;BME280;13308;50.860;13.664;2024-01-06T09:15:48;95911.25;;;3.49;100.00
25130;BME280;13308;50.860;13.664;2024-01-06T09:18:13;95919.81;;;3.54;100.00
25130;BME280;13308;50.860;13.664;2024-01-06T09:20:39;95916.69;;;3.56;100.00
25130;BME280;13308;50.860;13.664;2024-01-06T09:23:04;95923.28;;;3.58;100.00
25130;BME280;13308;50.860;13.664;2024-01-06T09:25:29;95923.69;;;3.57;100.00
25130;BME280;13308;50.860;13.664;2024-01-06T09:27:55;95933.00;;;3.70;100.00
25130;BME280;13308;50.860;13.664;2024-01-06T09:30:20;95935.31;;;3.78;100.00
25130;BME280;13308;50.860;13.664;2024-01-06T09:32:45;95934.47;;;3.85;100.00
25130;BME280;13308;50.860;13.664;2024-01-06T09:35:10;95934.47;;;3.85;100.00
25130;BME280;13308;50.860;13.664;2024-01-06T09:37:36;95927.47;;;3.84;100.00
25130;BME280;13308;50.860;13.664;2024-01-06T09:40:01;95930.16;;;3.91;100.00
25130;BME280;13308;50.860;13.664;2024-01-06T09:42:27;95927.81;;;3.96;100.00
25130;BME280;13308;50.860;13.664;2024-01-06T09:44:52;95929.69;;;4.10;100.00
25130;BME280;13308;50.860;13.664;2024-01-06T09:47:18;95929.63;;;4.24;100.00
25130;BME280;13308;50.860;13.664;2024-01-06T09:49:49;95924.06;;;4.38;100.00
25130;BME280;13308;50.860;13.664;2024-01-06T09:52:15;95926.75;;;4.41;100.00
25130;BME280;13308;50.860;13.664;2024-01-06T09:54:49;95925.47;;;4.60;100.00
25130;BME280;13308;50.860;13.664;2024-01-06T09:57:15;95919.34;;;4.93;100.00
25130;BME280;13308;50.860;13.664;2024-01-06T09:59:44;95922.88;;;4.90;100.00
25130;BME280;13308;50.860;13.664;2024-01-06T10:02:11;95920.03;;;5.04;100.00
25130;BME280;13308;50.860;13.664;2024-01-06T10:04:39;95918.88;;;5.42;100.00
25130;BME280;13308;50.860;13.664;2024-01-06T10:07:04;95923.88;;;6.44;100.00
25130;BME280;13308;50.860;13.664;2024-01-06T10:09:30;95929.59;;;7.25;100.00
25130;BME280;13308;50.860;13.664;2024-01-06T10:11:56;95923.66;;;7.30;100.00
25130;BME280;13308;50.860;13.664;2024-01-06T10:14:25;95924.25;;;7.18;100.00
25130;BME280;13308;50.860;13.664;2024-01-06T10:16:54;95916.06;;;6.69;100.00
25130;BME280;13308;50.860;13.664;2024-01-06T10:19:19;95922.41;;;6.36;100.00
25130;BME280;13308;50.860;13.664;2024-01-06T10:21:45;95918.91;;;6.35;100.00
25130;BME280;13308;50.860;13.664;2024-01-06T10:24:10;95924.34;;;6.39;100.00
25130;BME280;13308;50.860;13.664;2024-01-06T10:26:36;95929.88;;;6.62;100.00
25130;BME280;13308;50.860;13.664;2024-01-06T10:29:02;95928.91;;;6.45;100.00
25130;BME280;13308;50.860;13.664;2024-01-06T10:31:29;95926.25;;;6.12;100.00
25130;BME280;13308;50.860;13.664;2024-01-06T10:33:54;95923.97;;;6.07;100.00
25130;BME280;13308;50.860;13.664;2024-01-06T10:36:20;95921.72;;;6.02;100.00
25130;BME280;13308;50.860;13.664;2024-01-06T10:38:45;95927.69;;;6.23;100.00
25130;BME280;13308;50.860;13.664;2024-01-06T10:41:11;95923.81;;;6.21;100.00
25130;BME280;13308;50.860;13.664;2024-01-06T10:43:37;95922.25;;;6.20;100.00
25130;BME280;13308;50.860;13.664;2024-01-06T10:46:07;95920.81;;;6.38;100.00
25130;BME280;13308;50.860;13.664;2024-01-06T10:48:36;95925.31;;;6.52;100.00
25130;BME280;13308;50.860;13.664;2024-01-06T10:51:04;95922.34;;;6.66;100.00
25130;BME280;13308;50.860;13.664;2024-01-06T10:53:32;95912.75;;;6.81;100.00
25130;BME280;13308;50.860;13.664;2024-01-06T10:55:59;95922.03;;;6.87;100.00
25130;BME280;13308;50.860;13.664;2024-01-06T10:58:24;95920.38;;;6.93;100.00
25130;BME280;13308;50.860;13.664;2024-01-06T11:00:50;95923.34;;;7.02;100.00
25130;BME280;13308;50.860;13.664;2024-01-06T11:03:17;95927.03;;;6.92;100.00
25130;BME280;13308;50.860;13.664;2024-01-06T11:05:43;95926.19;;;6.95;100.00
25130;BME280;13308;50.860;13.664;2024-01-06T11:08:08;95922.75;;;6.91;100.00
25130;BME280;13308;50.860;13.664;2024-01-06T11:10:36;95935.16;;;6.99;100.00
25130;BME280;13308;50.860;13.664;2024-01-06T11:13:13;95924.44;;;6.81;100.00
25130;BME280;13308;50.860;13.664;2024-01-06T11:15:45;95929.09;;;6.61;100.00
25130;BME280;13308;50.860;13.664;2024-01-06T11:18:38;95938.19;;;6.55;100.00
25130;BME280;13308;50.860;13.664;2024-01-06T11:21:22;95934.66;;;6.54;100.00
25130;BME280;13308;50.860;13.664;2024-01-06T11:24:15;95933.94;;;6.50;100.00
25130;BME280;13308;50.860;13.664;2024-01-06T11:26:45;95932.75;;;6.51;100.00
25130;BME280;13308;50.860;13.664;2024-01-06T11:29:11;95933.59;;;6.48;100.00
25130;BME280;13308;50.860;13.664;2024-01-06T11:31:37;95928.16;;;6.45;100.00
25130;BME280;13308;50.860;13.664;2024-01-06T11:34:14;95937.56;;;6.44;100.00
25130;BME280;13308;50.860;13.664;2024-01-06T11:36:39;95928.97;;;6.42;100.00
25130;BME280;13308;50.860;13.664;2024-01-06T11:39:05;95929.75;;;6.42;100.00
25130;BME280;13308;50.860;13.664;2024-01-06T11:41:50;95924.97;;;6.50;100.00
25130;BME280;13308;50.860;13.664;2024-01-06T11:44:20;95930.50;;;6.46;100.00
25130;BME280;13308;50.860;13.664;2024-01-06T11:46:47;95924.97;;;6.50;100.00
25130;BME280;13308;50.860;13.664;2024-01-06T11:49:15;95929.25;;;6.51;100.00
25130;BME280;13308;50.860;13.664;2024-01-06T11:51:41;95917.09;;;6.52;100.00
25130;BME280;13308;50.860;13.664;2024-01-06T11:54:06;95928.88;;;6.49;100.00
25130;BME280;13308;50.860;13.664;2024-01-06T11:56:32;95928.91;;;6.45;100.00
25130;BME280;13308;50.860;13.664;2024-01-06T11:58:57;95928.56;;;6.43;100.00
25130;BME280;13308;50.860;13.664;2024-01-06T12:01:23;95927.88;;;6.36;100.00
25130;BME280;13308;50.860;13.664;2024-01-06T12:03:54;95920.75;;;6.42;100.00
25130;BME280;13308;50.860;13.664;2024-01-06T12:06:20;95928.25;;;6.38;100.00
25130;BME280;13308;50.860;13.664;2024-01-06T12:08:46;95930.50;;;6.46;100.00
25130;BME280;13308;50.860;13.664;2024-01-06T12:11:12;95927.69;;;6.50;100.00
25130;BME280;13308;50.860;13.664;2024-01-06T12:13:37;95923.41;;;6.49;100.00
25130;BME280;13308;50.860;13.664;2024-01-06T12:16:02;95935.97;;;6.46;100.00
25130;BME280;13308;50.860;13.664;2024-01-06T12:18:28;95940.72;;;6.42;100.00
25130;BME280;13308;50.860;13.664;2024-01-06T12:20:54;95939.13;;;6.45;100.00
25130;BME280;13308;50.860;13.664;2024-01-06T12:23:27;95932.91;;;6.41;100.00
25130;BME280;13308;50.860;13.664;2024-01-06T12:25:53;95940.81;;;6.35;100.00
25130;BME280;13308;50.860;13.664;2024-01-06T12:28:19;95939.34;;;6.27;100.00
25130;BME280;13308;50.860;13.664;2024-01-06T12:30:44;95940.59;;;6.23;100.00
25130;BME280;13308;50.860;13.664;2024-01-06T12:33:09;95941.00;;;6.21;100.00
25130;BME280;13308;50.860;13.664;2024-01-06T12:35:35;95942.50;;;6.26;100.00
25130;BME280;13308;50.860;13.664;2024-01-06T12:38:02;95939.78;;;6.26;100.00
25130;BME280;13308;50.860;13.664;2024-01-06T12:40:30;95947.25;;;6.22;100.00
25130;BME280;13308;50.860;13.664;2024-01-06T12:42:56;95936.50;;;6.08;100.00
25130;BME280;13308;50.860;13.664;2024-01-06T12:45:21;95936.09;;;6.06;100.00
25130;BME280;13308;50.860;13.664;2024-01-06T12:47:47;95933.47;;;5.99;100.00
25130;BME280;13308;50.860;13.664;2024-01-06T12:50:12;95935.81;;;6.00;100.00
25130;BME280;13308;50.860;13.664;2024-01-06T12:52:38;95932.28;;;6.00;100.00
25130;BME280;13308;50.860;13.664;2024-01-06T12:55:05;95937.75;;;6.00;100.00
25130;BME280;13308;50.860;13.664;2024-01-06T12:57:31;95941.38;;;5.93;100.00
25130;BME280;13308;50.860;13.664;2024-01-06T12:59:56;95949.19;;;5.91;100.00
25130;BME280;13308;50.860;13.664;2024-01-06T13:02:22;95940.63;;;5.89;100.00
25130;BME280;13308;50.860;13.664;2024-01-06T13:04:47;95941.31;;;5.97;100.00
25130;BME280;13308;50.860;13.664;2024-01-06T13:07:12;95946.78;;;5.97;100.00
25130;BME280;13308;50.860;13.664;2024-01-06T13:09:38;95950.72;;;5.96;100.00
25130;BME280;13308;50.860;13.664;2024-01-06T13:12:04;95952.97;;;6.01;100.00
25130;BME280;13308;50.860;13.664;2024-01-06T13:14:30;95957.75;;;5.97;100.00
25130;BME280;13308;50.860;13.664;2024-01-06T13:16:56;95955.81;;;5.94;100.00
25130;BME280;13308;50.860;13.664;2024-01-06T13:19:23;95961.72;;;5.89;100.00
25130;BME280;13308;50.860;13.664;2024-01-06T13:21:49;95966.47;;;5.85;100.00
25130;BME280;13308;50.860;13.664;2024-01-06T13:24:14;95973.56;;;5.79;100.00
25130;BME280;13308;50.860;13.664;2024-01-06T13:26:39;95968.09;;;5.79;100.00
25130;BME280;13308;50.860;13.664;2024-01-06T13:29:05;95975.94;;;5.73;100.00
25130;BME280;13308;50.860;13.664;2024-01-06T13:31:30;95975.19;;;5.73;100.00
25130;BME280;13308;50.860;13.664;2024-01-06T13:33:56;95975.97;;;5.70;100.00
25130;BME280;13308;50.860;13.664;2024-01-06T13:36:22;95976.03;;;5.66;100.00
25130;BME280;13308;50.860;13.664;2024-01-06T13:38:47;95976.88;;;5.60;100.00
25130;BME280;13308;50.860;13.664;2024-01-06T13:41:14;95983.59;;;5.52;100.00
25130;BME280;13308;50.860;13.664;2024-01-06T13:43:39;95990.31;;;5.44;100.00
25130;BME280;13308;50.860;13.664;2024-01-06T13:46:04;95979.44;;;5.40;100.00
25130;BME280;13308;50.860;13.664;2024-01-06T13:48:29;95991.13;;;5.41;100.00
25130;BME280;13308;50.860;13.664;2024-01-06T13:50:55;95985.69;;;5.37;100.00
25130;BME280;13308;50.860;13.664;2024-01-06T13:53:21;95981.81;;;5.35;100.00
25130;BME280;13308;50.860;13.664;2024-01-06T13:55:46;95988.88;;;5.29;100.00
25130;BME280;13308;50.860;13.664;2024-01-06T13:58:12;95978.00;;;5.25;100.00
25130;BME280;13308;50.860;13.664;2024-01-06T14:00:37;95984.69;;;5.21;100.00
25130;BME280;13308;50.860;13.664;2024-01-06T14:03:03;95984.28;;;5.22;100.00
25130;BME280;13308;50.860;13.664;2024-01-06T14:05:29;95988.97;;;5.22;100.00
25130;BME280;13308;50.860;13.664;2024-01-06T14:07:54;95985.88;;;5.20;100.00
25130;BME280;13308;50.860;13.664;2024-01-06T14:10:20;95985.03;;;5.23;100.00
25130;BME280;13308;50.860;13.664;2024-01-06T14:12:46;95995.25;;;5.19;100.00
25130;BME280;13308;50.860;13.664;2024-01-06T14:15:11;95992.13;;;5.17;100.00
25130;BME280;13308;50.860;13.664;2024-01-06T14:17:37;95990.97;;;5.14;100.00
25130;BME280;13308;50.860;13.664;2024-01-06T14:20:04;96003.91;;;5.10;100.00
25130;BME280;13308;50.860;13.664;2024-01-06T14:22:29;96005.47;;;5.08;100.00
25130;BME280;13308;50.860;13.664;2024-01-06T14:24:55;95997.72;;;5.03;100.00
25130;BME280;13308;50.860;13.664;2024-01-06T14:27:20;96014.09;;;5.03;100.00
25130;BME280;13308;50.860;13.664;2024-01-06T14:29:45;96003.97;;;5.00;100.00
25130;BME280;13308;50.860;13.664;2024-01-06T14:32:11;96014.53;;;4.98;100.00
25130;BME280;13308;50.860;13.664;2024-01-06T14:34:38;96013.00;;;4.93;100.00
25130;BME280;13308;50.860;13.664;2024-01-06T14:37:04;96026.31;;;4.91;100.00
25130;BME280;13308;50.860;13.664;2024-01-06T14:39:30;96026.69;;;4.90;100.00
25130;BME280;13308;50.860;13.664;2024-01-06T14:41:55;96032.56;;;4.85;100.00
25130;BME280;13308;50.860;13.664;2024-01-06T14:44:20;96027.91;;;4.82;100.00
25130;BME280;13308;50.860;13.664;2024-01-06T14:46:47;96034.50;;;4.84;100.00
25130;BME280;13308;50.860;13.664;2024-01-06T14:49:12;96038.44;;;4.80;100.00
25130;BME280;13308;50.860;13.664;2024-01-06T14:51:38;96040.03;;;4.77;100.00
25130;BME280;13308;50.860;13.664;2024-01-06T14:54:03;96040.88;;;4.71;100.00
25130;BME280;13308;50.860;13.664;2024-01-06T14:56:29;96040.88;;;4.71;100.00
25130;BME280;13308;50.860;13.664;2024-01-06T14:58:55;96042.44;;;4.68;100.00
25130;BME280;13308;50.860;13.664;2024-01-06T15:01:21;96049.06;;;4.64;100.00
25130;BME280;13308;50.860;13.664;2024-01-06T15:03:46;96047.16;;;4.61;100.00
25130;BME280;13308;50.860;13.664;2024-01-06T15:06:11;96053.41;;;4.58;100.00
25130;BME280;13308;50.860;13.664;2024-01-06T15:08:37;96061.22;;;4.56;100.00
25130;BME280;13308;50.860;13.664;2024-01-06T15:11:02;96065.16;;;4.51;100.00
25130;BME280;13308;50.860;13.664;2024-01-06T15:13:28;96057.34;;;4.50;100.00
25130;BME280;13308;50.860;13.664;2024-01-06T15:15:53;96049.56;;;4.45;100.00
25130;BME280;13308;50.860;13.664;2024-01-06T15:18:19;96059.75;;;4.41;100.00
25130;BME280;13308;50.860;13.664;2024-01-06T15:20:46;96071.44;;;4.38;100.00
25130;BME280;13308;50.860;13.664;2024-01-06T15:23:11;96073.81;;;4.36;100.00
25130;BME280;13308;50.860;13.664;2024-01-06T15:25:36;96085.88;;;4.31;100.00
25130;BME280;13308;50.860;13.664;2024-01-06T15:28:02;96090.22;;;4.29;100.00
25130;BME280;13308;50.860;13.664;2024-01-06T15:30:27;96092.53;;;4.27;100.00
25130;BME280;13308;50.860;13.664;2024-01-06T15:32:52;96105.81;;;4.25;100.00
25130;BME280;13308;50.860;13.664;2024-01-06T15:35:18;96099.97;;;4.23;100.00
25130;BME280;13308;50.860;13.664;2024-01-06T15:37:43;96100.38;;;4.18;100.00
25130;BME280;13308;50.860;13.664;2024-01-06T15:40:09;96089.47;;;4.14;100.00
25130;BME280;13308;50.860;13.664;2024-01-06T15:42:34;96094.53;;;4.12;100.00
25130;BME280;13308;50.860;13.664;2024-01-06T15:45:00;96092.63;;;4.06;100.00
25130;BME280;13308;50.860;13.664;2024-01-06T15:47:25;96109.75;;;4.03;100.00
25130;BME280;13308;50.860;13.664;2024-01-06T15:49:50;96103.56;;;3.99;100.00
25130;BME280;13308;50.860;13.664;2024-01-06T15:52:16;96098.47;;;3.97;100.00
25130;BME280;13308;50.860;13.664;2024-01-06T15:54:46;96105.09;;;3.96;100.00
25130;BME280;13308;50.860;13.664;2024-01-06T15:57:13;96095.34;;;3.92;100.00
25130;BME280;13308;50.860;13.664;2024-01-06T15:59:38;96098.88;;;3.89;100.00
25130;BME280;13308;50.860;13.664;2024-01-06T16:02:04;96098.09;;;3.85;100.00
25130;BME280;13308;50.860;13.664;2024-01-06T16:04:29;96107.47;;;3.77;100.00
25130;BME280;13308;50.860;13.664;2024-01-06T16:06:55;96098.91;;;3.71;100.00
25130;BME280;13308;50.860;13.664;2024-01-06T16:09:22;96107.09;;;3.68;100.00
25130;BME280;13308;50.860;13.664;2024-01-06T16:11:50;96114.50;;;3.64;100.00
25130;BME280;13308;50.860;13.664;2024-01-06T16:14:16;96116.06;;;3.54;100.00
25130;BME280;13308;50.860;13.664;2024-01-06T16:16:41;96122.66;;;3.50;100.00
25130;BME280;13308;50.860;13.664;2024-01-06T16:19:07;96115.66;;;3.49;100.00
25130;BME280;13308;50.860;13.664;2024-01-06T16:21:33;96114.50;;;3.53;100.00
25130;BME280;13308;50.860;13.664;2024-01-06T16:23:59;96120.31;;;3.45;100.00
25130;BME280;13308;50.860;13.664;2024-01-06T16:26:25;96116.84;;;3.41;100.00
25130;BME280;13308;50.860;13.664;2024-01-06T16:28:51;96122.28;;;3.41;100.00
25130;BME280;13308;50.860;13.664;2024-01-06T16:31:16;96114.50;;;3.32;100.00
25130;BME280;13308;50.860;13.664;2024-01-06T16:33:41;96123.84;;;3.28;100.00
25130;BME280;13308;50.860;13.664;2024-01-06T16:36:07;96126.16;;;3.19;100.00
25130;BME280;13308;50.860;13.664;2024-01-06T16:38:35;96130.06;;;3.18;100.00
25130;BME280;13308;50.860;13.664;2024-01-06T16:41:01;96128.50;;;3.13;100.00
25130;BME280;13308;50.860;13.664;2024-01-06T16:43:27;96130.03;;;3.11;100.00
25130;BME280;13308;50.860;13.664;2024-01-06T16:45:53;96126.16;;;3.05;100.00
25130;BME280;13308;50.860;13.664;2024-01-06T16:48:18;96131.59;;;3.01;100.00
25130;BME280;13308;50.860;13.664;2024-01-06T16:50:44;96128.44;;;2.92;100.00
25130;BME280;13308;50.860;13.664;2024-01-06T16:53:10;96128.44;;;2.92;100.00
25130;BME280;13308;50.860;13.664;2024-01-06T16:55:36;96137.00;;;2.91;100.00
25130;BME280;13308;50.860;13.664;2024-01-06T16:58:01;96131.53;;;2.84;100.00
25130;BME280;13308;50.860;13.664;2024-01-06T17:00:27;96132.69;;;2.79;100.00
25130;BME280;13308;50.860;13.664;2024-01-06T17:02:54;96136.16;;;2.76;100.00
25130;BME280;13308;50.860;13.664;2024-01-06T17:05:20;96139.69;;;2.77;100.00
25130;BME280;13308;50.860;13.664;2024-01-06T17:07:45;96142.41;;;2.77;100.00
25130;BME280;13308;50.860;13.664;2024-01-06T17:10:13;96139.28;;;2.71;100.00
25130;BME280;13308;50.860;13.664;2024-01-06T17:12:38;96132.25;;;2.70;100.00
25130;BME280;13308;50.860;13.664;2024-01-06T17:15:04;96135.78;;;2.71;100.00
25130;BME280;13308;50.860;13.664;2024-01-06T17:17:30;96143.94;;;2.71;100.00
25130;BME280;13308;50.860;13.664;2024-01-06T17:19:55;96148.22;;;2.68;100.00
25130;BME280;13308;50.860;13.664;2024-01-06T17:22:21;96156.38;;;2.72;100.00
25130;BME280;13308;50.860;13.664;2024-01-06T17:24:46;96160.25;;;2.67;100.00
25130;BME280;13308;50.860;13.664;2024-01-06T17:27:12;96170.78;;;2.69;100.00
25130;BME280;13308;50.860;13.664;2024-01-06T17:29:37;96168.44;;;2.67;100.00
25130;BME280;13308;50.860;13.664;2024-01-06T17:32:02;96176.22;;;2.69;100.00
25130;BME280;13308;50.860;13.664;2024-01-06T17:34:29;96165.72;;;2.67;100.00
25130;BME280;13308;50.860;13.664;2024-01-06T17:36:54;96165.69;;;2.64;100.00
25130;BME280;13308;50.860;13.664;2024-01-06T17:39:20;96169.19;;;2.64;100.00
25130;BME280;13308;50.860;13.664;2024-01-06T17:41:45;96170.34;;;2.60;100.00
25130;BME280;13308;50.860;13.664;2024-01-06T17:44:12;96183.94;;;2.60;100.00
25130;BME280;13308;50.860;13.664;2024-01-06T17:46:37;96180.03;;;2.54;100.00
25130;BME280;13308;50.860;13.664;2024-01-06T17:49:02;96178.84;;;2.48;100.00
25130;BME280;13308;50.860;13.664;2024-01-06T17:51:28;96184.63;;;2.43;100.00
25130;BME280;13308;50.860;13.664;2024-01-06T17:53:54;96178.81;;;2.41;100.00
25130;BME280;13308;50.860;13.664;2024-01-06T17:56:19;96179.56;;;2.38;100.00
25130;BME280;13308;50.860;13.664;2024-01-06T17:58:46;96192.03;;;2.39;100.00
25130;BME280;13308;50.860;13.664;2024-01-06T18:01:11;96186.56;;;2.39;100.00
25130;BME280;13308;50.860;13.664;2024-01-06T18:03:38;96191.97;;;2.32;100.00
25130;BME280;13308;50.860;13.664;2024-01-06T18:06:04;96189.28;;;2.35;100.00
25130;BME280;13308;50.860;13.664;2024-01-06T18:08:29;96198.19;;;2.32;100.00
25130;BME280;13308;50.860;13.664;2024-01-06T18:10:55;96193.09;;;2.27;100.00
25130;BME280;13308;50.860;13.664;2024-01-06T18:13:20;96200.50;;;2.27;100.00
25130;BME280;13308;50.860;13.664;2024-01-06T18:15:45;96207.84;;;2.23;100.00
25130;BME280;13308;50.860;13.664;2024-01-06T18:18:11;96207.47;;;2.21;100.00
25130;BME280;13308;50.860;13.664;2024-01-06T18:20:36;96202.75;;;2.18;100.00
25130;BME280;13308;50.860;13.664;2024-01-06T18:23:04;96208.56;;;2.13;100.00
25130;BME280;13308;50.860;13.664;2024-01-06T18:25:29;96201.16;;;2.10;100.00
25130;BME280;13308;50.860;13.664;2024-01-06T18:27:54;96207.34;;;2.07;100.00
25130;BME280;13308;50.860;13.664;2024-01-06T18:30:20;96211.59;;;2.04;100.00
25130;BME280;13308;50.860;13.664;2024-01-06T18:32:45;96211.19;;;1.99;100.00
25130;BME280;13308;50.860;13.664;2024-01-06T18:35:11;96215.47;;;2.00;100.00
25130;BME280;13308;50.860;13.664;2024-01-06T18:37:37;96222.81;;;1.96;100.00
25130;BME280;13308;50.860;13.664;2024-01-06T18:40:03;96224.75;;;1.95;100.00
25130;BME280;13308;50.860;13.664;2024-01-06T18:42:30;96229.81;;;1.97;100.00
25130;BME280;13308;50.860;13.664;2024-01-06T18:44:58;96230.97;;;1.96;100.00
25130;BME280;13308;50.860;13.664;2024-01-06T18:47:24;96234.06;;;1.91;100.00
25130;BME280;13308;50.860;13.664;2024-01-06T18:49:49;96231.28;;;1.87;100.00
25130;BME280;13308;50.860;13.664;2024-01-06T18:52:15;96236.72;;;1.87;100.00
25130;BME280;13308;50.860;13.664;2024-01-06T18:54:40;96233.97;;;1.84;100.00
25130;BME280;13308;50.860;13.664;2024-01-06T18:57:07;96233.59;;;1.82;100.00
25130;BME280;13308;50.860;13.664;2024-01-06T18:59:32;96233.97;;;1.84;100.00
25130;BME280;13308;50.860;13.664;2024-01-06T19:01:58;96239.41;;;1.84;100.00
25130;BME280;13308;50.860;13.664;2024-01-06T19:04:24;96238.97;;;1.75;100.00
25130;BME280;13308;50.860;13.664;2024-01-06T19:06:49;96244.00;;;1.73;100.00
25130;BME280;13308;50.860;13.664;2024-01-06T19:09:15;96244.38;;;1.71;100.00
25130;BME280;13308;50.860;13.664;2024-01-06T19:11:40;96245.94;;;1.72;100.00
25130;BME280;13308;50.860;13.664;2024-01-06T19:14:06;96243.53;;;1.67;100.00
25130;BME280;13308;50.860;13.664;2024-01-06T19:16:31;96252.84;;;1.63;100.00
25130;BME280;13308;50.860;13.664;2024-01-06T19:18:56;96252.00;;;1.59;100.00
25130;BME280;13308;50.860;13.664;2024-01-06T19:21:22;96252.84;;;1.63;100.00
25130;BME280;13308;50.860;13.664;2024-01-06T19:23:47;96257.88;;;1.61;100.00
25130;BME280;13308;50.860;13.664;2024-01-06T19:26:12;96262.47;;;1.57;100.00
25130;BME280;13308;50.860;13.664;2024-01-06T19:28:38;96256.22;;;1.53;100.00
25130;BME280;13308;50.860;13.664;2024-01-06T19:31:04;96258.16;;;1.52;100.00
25130;BME280;13308;50.860;13.664;2024-01-06T19:33:30;96251.22;;;1.55;100.00
